Time;durP1;ratioP1;P1;durP2;ratioP2;P2;SDS_P1;SDS_P2;PMS_P1;PMS_P2;Temp;Humidity;BMP_temperature;BMP_pressure;BME280_temperature;BME280_humidity;BME280_pressure;Samples;Min_cycle;Max_cycle;Signal;HPM_P1;HPM_P2
2020/12/07 00:00:23;;;;;;;152.87;33.13;;;3.70;99.90;;;;;;5133380;27;20199;-77
2020/12/07 00:02:49;;;;;;;126.47;32.33;;;3.70;99.90;;;;;;5132795;27;20289;-77
2020/12/07 00:05:16;;;;;;;133.53;33.37;;;3.80;99.90;;;;;;5133440;27;20295;-75
2020/12/07 00:07:42;;;;;;;103.10;32.97;;;3.70;99.90;;;;;;5132579;27;20204;-77
2020/12/07 00:10:09;;;;;;;121.73;33.03;;;3.80;99.90;;;;;;5133190;27;20289;-77
2020/12/07 00:12:36;;;;;;;115.63;32.73;;;3.70;99.90;;;;;;5132496;27;20219;-77
2020/12/07 00:15:04;;;;;;;105.43;32.27;;;3.70;99.90;;;;;;5125950;27;20286;-77
2020/12/07 00:17:30;;;;;;;117.90;33.47;;;3.70;99.90;;;;;;5112970;27;20195;-77
2020/12/07 00:19:57;;;;;;;115.73;31.87;;;3.80;99.90;;;;;;5112632;27;20203;-78
2020/12/07 00:22:24;;;;;;;137.60;31.67;;;3.80;99.90;;;;;;5111963;27;20559;-77
2020/12/07 00:24:51;;;;;;;128.73;32.43;;;3.80;99.90;;;;;;5117180;27;20282;-76
2020/12/07 00:27:22;;;;;;;146.33;31.93;;;3.90;99.90;;;;;;5116207;27;20201;-76
2020/12/07 00:29:49;;;;;;;121.07;32.77;;;3.90;99.90;;;;;;5114183;27;20226;-75
2020/12/07 00:32:15;;;;;;;134.90;31.07;;;3.90;99.90;;;;;;5125002;27;20687;-77
2020/12/07 00:34:42;;;;;;;163.90;34.53;;;3.90;99.90;;;;;;5128456;27;20196;-77
2020/12/07 00:37:09;;;;;;;103.33;31.10;;;3.90;99.90;;;;;;5132447;27;20213;-77
2020/12/07 00:39:35;;;;;;;107.53;30.80;;;3.70;99.90;;;;;;5132187;27;20202;-77
2020/12/07 00:42:02;;;;;;;127.07;32.60;;;3.70;99.90;;;;;;5133205;27;20600;-76
2020/12/07 00:44:28;;;;;;;155.33;32.23;;;3.70;99.90;;;;;;5132108;27;20199;-78
2020/12/07 00:46:55;;;;;;;131.87;32.97;;;3.80;99.90;;;;;;5132847;27;20284;-77
2020/12/07 00:49:22;;;;;;;140.83;31.10;;;3.90;99.90;;;;;;5132380;27;20290;-76
2020/12/07 00:51:48;;;;;;;112.53;30.37;;;4.00;99.90;;;;;;5140677;27;20204;-77
2020/12/07 00:54:15;;;;;;;115.67;30.37;;;4.00;99.90;;;;;;5138356;27;20202;-77
2020/12/07 00:56:41;;;;;;;115.97;31.27;;;4.10;99.90;;;;;;5138728;27;20704;-78
2020/12/07 00:59:09;;;;;;;121.83;31.67;;;4.00;99.90;;;;;;5140745;27;20210;-77
2020/12/07 01:01:35;;;;;;;113.53;30.60;;;4.00;99.90;;;;;;5136786;27;20199;-77
2020/12/07 01:04:03;;;;;;;95.70;30.97;;;3.90;99.90;;;;;;5141717;27;20660;-77
2020/12/07 01:06:30;;;;;;;115.07;30.20;;;3.80;99.90;;;;;;5136663;27;20196;-77
2020/12/07 01:08:57;;;;;;;117.60;30.43;;;3.90;99.90;;;;;;5147741;27;20704;-76
2020/12/07 01:11:24;;;;;;;81.73;28.33;;;3.80;99.90;;;;;;5136506;27;20195;-77
2020/12/07 01:13:50;;;;;;;97.80;28.37;;;3.80;99.90;;;;;;5136465;27;20588;-77
2020/12/07 01:16:21;;;;;;;100.60;28.60;;;3.80;99.90;;;;;;5137501;27;20209;-75
2020/12/07 01:18:47;;;;;;;108.57;28.13;;;3.80;99.90;;;;;;5137945;27;20190;-78
2020/12/07 01:21:15;;;;;;;100.30;27.80;;;3.80;99.90;;;;;;5137818;27;20199;-78
2020/12/07 01:23:44;;;;;;;108.80;27.23;;;3.90;99.90;;;;;;5136902;27;20746;-77
2020/12/07 01:26:11;;;;;;;105.60;27.53;;;3.90;99.90;;;;;;5138367;27;20204;-77
2020/12/07 01:28:37;;;;;;;118.97;28.67;;;3.80;99.90;;;;;;5138374;27;20208;-77
2020/12/07 01:31:03;;;;;;;134.13;28.63;;;3.80;99.90;;;;;;5136883;27;20203;-77
2020/12/07 01:33:30;;;;;;;115.40;30.07;;;3.80;99.90;;;;;;5136083;27;20219;-76
2020/12/07 01:35:56;;;;;;;109.97;27.63;;;3.70;99.90;;;;;;5136147;27;20562;-76
2020/12/07 01:38:24;;;;;;;94.60;28.43;;;3.60;99.90;;;;;;5136288;27;20229;-77
2020/12/07 01:40:50;;;;;;;91.07;28.30;;;3.70;99.90;;;;;;5135828;27;20210;-76
2020/12/07 01:43:18;;;;;;;114.57;27.57;;;3.60;99.90;;;;;;5135968;27;20209;-76
2020/12/07 01:45:44;;;;;;;102.20;25.70;;;3.50;99.90;;;;;;5137699;27;20210;-76
2020/12/07 01:48:11;;;;;;;123.43;27.63;;;3.60;99.90;;;;;;5121223;27;20285;-76
2020/12/07 01:50:39;;;;;;;113.57;25.97;;;3.50;99.90;;;;;;5135593;27;20203;-76
2020/12/07 01:53:06;;;;;;;88.37;24.93;;;3.50;99.90;;;;;;5135147;27;20224;-76
2020/12/07 01:55:33;;;;;;;126.20;24.67;;;3.40;99.90;;;;;;5135613;27;20670;-77
2020/12/07 01:57:59;;;;;;;97.30;25.30;;;3.40;99.90;;;;;;5134879;27;20205;-77
2020/12/07 02:00:26;;;;;;;87.97;26.03;;;3.40;99.90;;;;;;5133698;27;20226;-76
2020/12/07 02:02:52;;;;;;;86.00;23.93;;;3.40;99.90;;;;;;5134933;27;20286;-77
2020/12/07 02:05:19;;;;;;;59.20;22.13;;;3.30;99.90;;;;;;5135188;27;20214;-77
2020/12/07 02:07:45;;;;;;;91.83;22.90;;;3.30;99.90;;;;;;5134955;27;20206;-77
2020/12/07 02:10:11;;;;;;;67.73;21.73;;;3.20;99.90;;;;;;5135557;27;20203;-77
2020/12/07 02:12:38;;;;;;;52.97;21.27;;;3.10;99.90;;;;;;5134933;27;20315;-76
2020/12/07 02:15:05;;;;;;;59.57;22.90;;;3.10;99.90;;;;;;5135445;27;20224;-76
2020/12/07 02:17:31;;;;;;;48.23;21.77;;;3.00;99.90;;;;;;5134671;27;20199;-77
2020/12/07 02:19:58;;;;;;;63.40;21.17;;;2.90;99.90;;;;;;5134836;27;20245;-76
2020/12/07 02:22:25;;;;;;;56.40;20.57;;;2.90;99.90;;;;;;5135196;27;20211;-76
2020/12/07 02:24:51;;;;;;;50.97;20.73;;;2.80;99.90;;;;;;5135253;27;20190;-77
2020/12/07 02:27:18;;;;;;;45.60;20.47;;;2.80;99.90;;;;;;5134755;27;20228;-78
2020/12/07 02:29:44;;;;;;;43.40;20.80;;;2.80;99.90;;;;;;5134670;27;20201;-76
2020/12/07 02:32:13;;;;;;;64.10;21.93;;;2.90;99.90;;;;;;5134687;27;20224;-76
2020/12/07 02:34:40;;;;;;;48.60;21.03;;;2.80;99.90;;;;;;5134344;27;20201;-76
2020/12/07 02:37:08;;;;;;;49.30;20.97;;;2.80;99.90;;;;;;5135193;27;20301;-77
2020/12/07 02:39:34;;;;;;;73.37;22.13;;;2.70;99.90;;;;;;5134236;27;20665;-76
2020/12/07 02:42:02;;;;;;;48.43;20.80;;;2.80;99.90;;;;;;5135209;27;20297;-77
2020/12/07 02:44:28;;;;;;;63.47;21.73;;;2.70;99.90;;;;;;5135011;27;20301;-76
2020/12/07 02:46:55;;;;;;;52.23;20.73;;;2.70;99.90;;;;;;5134846;27;20608;-76
2020/12/07 02:49:21;;;;;;;50.33;21.90;;;2.70;99.90;;;;;;5134626;27;20202;-78
2020/12/07 02:51:47;;;;;;;48.70;20.63;;;2.60;99.90;;;;;;5134674;27;20285;-78
2020/12/07 02:54:15;;;;;;;43.53;20.83;;;2.60;99.90;;;;;;5134220;27;20227;-76
2020/12/07 02:56:41;;;;;;;46.53;20.53;;;2.60;99.90;;;;;;5134223;27;20198;-77
2020/12/07 02:59:07;;;;;;;54.20;21.37;;;2.60;99.90;;;;;;5134058;27;20663;-78
2020/12/07 03:01:34;;;;;;;49.93;22.20;;;2.60;99.90;;;;;;5138415;27;20201;-79
2020/12/07 03:04:00;;;;;;;46.67;20.87;;;2.70;99.90;;;;;;5134648;27;20203;-76
2020/12/07 03:06:27;;;;;;;52.23;20.97;;;2.80;99.90;;;;;;5134893;27;20203;-77
2020/12/07 03:08:54;;;;;;;54.27;20.57;;;2.90;99.90;;;;;;5133390;27;20203;-76
2020/12/07 03:11:21;;;;;;;50.77;20.77;;;3.00;99.90;;;;;;5134303;27;20195;-77
2020/12/07 03:13:47;;;;;;;55.93;21.50;;;3.00;99.90;;;;;;5133456;27;20218;-77
2020/12/07 03:16:14;;;;;;;63.13;21.90;;;3.00;99.90;;;;;;5134432;27;20296;-76
2020/12/07 03:18:41;;;;;;;58.33;22.80;;;3.10;99.90;;;;;;5133491;27;20655;-78
2020/12/07 03:21:07;;;;;;;77.67;24.03;;;3.10;99.90;;;;;;5133947;27;20655;-76
2020/12/07 03:23:34;;;;;;;64.67;24.20;;;3.00;99.90;;;;;;5133391;27;20203;-77
2020/12/07 03:26:03;;;;;;;58.37;22.63;;;3.10;99.90;;;;;;5133984;27;20195;-76
2020/12/07 03:28:31;;;;;;;72.53;24.23;;;3.10;99.90;;;;;;5133294;27;20194;-79
2020/12/07 03:30:57;;;;;;;72.33;24.57;;;3.10;99.90;;;;;;5132982;27;20562;-76
2020/12/07 03:33:23;;;;;;;77.57;24.63;;;3.20;99.90;;;;;;5133185;27;20221;-76
2020/12/07 03:35:50;;;;;;;63.60;23.77;;;3.10;99.90;;;;;;5133673;27;20206;-76
2020/12/07 03:38:16;;;;;;;83.27;24.90;;;3.20;99.90;;;;;;5133276;27;20664;-76
2020/12/07 03:40:42;;;;;;;69.73;24.70;;;3.20;99.90;;;;;;5133662;27;20202;-76
2020/12/07 03:43:09;;;;;;;72.77;23.27;;;3.20;99.90;;;;;;5133119;27;20210;-76
2020/12/07 03:45:36;;;;;;;65.40;23.40;;;3.20;99.90;;;;;;5134135;27;20193;-75
2020/12/07 03:48:03;;;;;;;74.60;23.63;;;3.10;99.90;;;;;;5132979;27;20201;-76
2020/12/07 03:50:29;;;;;;;62.90;23.73;;;3.10;99.90;;;;;;5133369;27;20212;-77
2020/12/07 03:52:55;;;;;;;59.93;23.40;;;3.10;99.90;;;;;;5132805;27;20225;-76
2020/12/07 03:55:22;;;;;;;56.77;21.83;;;3.00;99.90;;;;;;5133527;27;20289;-77
2020/12/07 03:57:48;;;;;;;64.07;23.07;;;3.10;99.90;;;;;;5133147;27;20207;-76
2020/12/07 04:00:15;;;;;;;58.67;23.37;;;3.20;99.90;;;;;;5132099;27;20210;-77
2020/12/07 04:02:42;;;;;;;61.33;23.03;;;3.20;99.90;;;;;;5125732;27;20293;-77
2020/12/07 04:05:15;;;;;;;60.53;21.90;;;3.30;99.90;;;;;;5132401;27;20880;-76
2020/12/07 04:07:42;;;;;;;62.97;22.33;;;3.40;99.90;;;;;;5124575;27;20537;-76
2020/12/07 04:10:08;;;;;;;66.73;23.17;;;3.50;99.90;;;;;;5114830;27;20206;-77
2020/12/07 04:12:34;;;;;;;63.33;23.03;;;3.40;99.90;;;;;;5114315;27;20229;-76
2020/12/07 04:15:01;;;;;;;64.57;22.10;;;3.40;99.90;;;;;;5113460;27;20199;-77
2020/12/07 04:17:27;;;;;;;57.50;22.53;;;3.30;99.90;;;;;;5113625;27;20196;-76
2020/12/07 04:19:54;;;;;;;61.30;22.53;;;3.40;99.90;;;;;;5111848;27;20285;-77
2020/12/07 04:22:21;;;;;;;64.90;23.63;;;3.40;99.90;;;;;;5114236;27;20192;-77
2020/12/07 04:24:47;;;;;;;63.77;22.67;;;3.50;99.90;;;;;;5113570;27;20583;-77
2020/12/07 04:27:13;;;;;;;56.03;22.03;;;3.50;99.90;;;;;;5114806;27;20197;-76
2020/12/07 04:29:39;;;;;;;64.03;23.63;;;3.50;99.90;;;;;;5113636;27;20206;-76
2020/12/07 04:32:06;;;;;;;67.60;24.03;;;3.50;99.90;;;;;;5112865;27;20211;-75
2020/12/07 04:34:32;;;;;;;66.63;23.50;;;3.40;99.90;;;;;;5112771;27;20205;-75
2020/12/07 04:36:59;;;;;;;61.43;22.90;;;3.40;99.90;;;;;;5112095;27;20203;-76
2020/12/07 04:39:25;;;;;;;62.67;23.57;;;3.40;99.90;;;;;;5116596;27;20206;-76
2020/12/07 04:41:52;;;;;;;59.43;23.23;;;3.30;99.90;;;;;;5116217;27;20194;-76
2020/12/07 04:44:18;;;;;;;55.37;21.70;;;3.30;99.90;;;;;;5118715;27;20209;-76
2020/12/07 04:46:46;;;;;;;62.50;22.70;;;3.30;99.90;;;;;;5117057;27;20197;-77
2020/12/07 04:49:15;;;;;;;61.93;22.87;;;3.30;99.90;;;;;;5116953;27;20195;-77
2020/12/07 04:51:42;;;;;;;59.33;23.17;;;3.30;99.90;;;;;;5116315;27;20678;-76
2020/12/07 04:54:14;;;;;;;57.73;22.50;;;3.20;99.90;;;;;;5115299;27;20304;-77
2020/12/07 04:56:41;;;;;;;61.60;22.33;;;3.20;99.90;;;;;;5121155;27;20230;-77
2020/12/07 04:59:08;;;;;;;62.93;22.87;;;3.10;99.90;;;;;;5119370;27;20643;-80
2020/12/07 05:01:35;;;;;;;62.07;23.47;;;3.10;99.90;;;;;;5123498;27;20202;-78
2020/12/07 05:04:01;;;;;;;57.63;23.17;;;3.10;99.90;;;;;;5120539;27;20207;-77
2020/12/07 05:06:30;;;;;;;62.10;22.63;;;3.10;99.90;;;;;;5120040;27;20199;-79
2020/12/07 05:08:57;;;;;;;63.27;23.60;;;3.10;99.90;;;;;;5121983;27;20265;-77
2020/12/07 05:11:25;;;;;;;75.25;27.92;;;3.10;99.90;;;;;;5119670;27;20481;-77
2020/12/07 05:13:55;;;;;;;65.40;24.60;;;3.00;99.90;;;;;;5120485;27;20287;-77
2020/12/07 05:16:24;;;;;;;58.37;22.97;;;3.10;99.90;;;;;;5118152;27;20217;-78
2020/12/07 05:18:50;;;;;;;65.90;23.50;;;3.00;99.90;;;;;;5115725;27;20192;-76
2020/12/07 05:21:18;;;;;;;66.40;23.90;;;3.00;99.90;;;;;;5115277;27;20683;-77
2020/12/07 05:23:50;;;;;;;61.13;22.77;;;3.00;99.90;;;;;;5123809;27;20194;-76
2020/12/07 05:26:17;;;;;;;55.67;22.83;;;3.00;99.90;;;;;;5122507;27;20209;-76
2020/12/07 05:28:48;;;;;;;62.67;22.63;;;3.10;99.90;;;;;;5119400;27;20202;-75
2020/12/07 05:31:16;;;;;;;56.60;22.97;;;3.00;99.90;;;;;;5125248;27;20720;-77
2020/12/07 05:33:42;;;;;;;55.07;21.97;;;3.00;99.90;;;;;;5119708;27;20223;-76
2020/12/07 05:36:10;;;;;;;53.43;21.97;;;3.00;99.90;;;;;;5117078;27;20199;-78
2020/12/07 05:38:36;;;;;;;57.37;22.93;;;3.00;99.90;;;;;;5114949;27;20199;-77
2020/12/07 05:41:04;;;;;;;54.90;22.07;;;3.00;99.90;;;;;;5121152;27;20195;-78
2020/12/07 05:43:32;;;;;;;49.70;21.47;;;3.00;99.90;;;;;;5118679;27;20203;-77
2020/12/07 05:45:59;;;;;;;48.10;20.27;;;2.90;99.90;;;;;;5126992;27;20208;-77
2020/12/07 05:48:30;;;;;;;50.43;20.93;;;2.80;99.90;;;;;;5126915;27;20206;-76
2020/12/07 05:51:01;;;;;;;47.20;19.83;;;2.80;99.90;;;;;;5131116;27;20191;-76
2020/12/07 05:53:27;;;;;;;52.80;21.33;;;2.70;99.90;;;;;;5127184;27;20233;-77
2020/12/07 05:55:55;;;;;;;53.03;20.23;;;2.70;99.90;;;;;;5121511;27;20203;-78
2020/12/07 05:58:22;;;;;;;59.53;21.80;;;2.70;99.90;;;;;;5111761;27;20209;-76
2020/12/07 06:00:54;;;;;;;52.60;20.90;;;2.70;99.90;;;;;;5132326;27;20195;-78
2020/12/07 06:03:22;;;;;;;47.73;20.10;;;2.60;99.90;;;;;;5132279;27;20199;-76
2020/12/07 06:05:49;;;;;;;48.37;20.63;;;2.70;99.90;;;;;;5132785;27;20749;-76
2020/12/07 06:08:31;;;;;;;48.60;20.87;;;2.60;99.90;;;;;;5134639;27;20577;-78
2020/12/07 06:11:01;;;;;;;43.13;19.00;;;2.70;99.90;;;;;;5134729;27;20535;-76
2020/12/07 06:13:30;;;;;;;42.80;19.43;;;2.60;99.90;;;;;;5129716;27;20225;-78
2020/12/07 06:15:57;;;;;;;44.23;19.27;;;2.70;99.90;;;;;;5128035;27;20737;-77
2020/12/07 06:18:28;;;;;;;47.93;20.03;;;2.80;99.90;;;;;;5133003;27;20562;-79
2020/12/07 06:20:56;;;;;;;42.07;20.30;;;2.80;99.90;;;;;;5133412;27;20204;-80
2020/12/07 06:23:34;;;;;;;59.20;21.50;;;2.80;99.90;;;;;;5133531;27;20210;-77
2020/12/07 06:26:02;;;;;;;43.67;20.77;;;2.80;99.90;;;;;;5134260;27;20268;-77
2020/12/07 06:28:33;;;;;;;46.30;20.47;;;2.80;99.90;;;;;;5134215;27;20270;-77
2020/12/07 06:31:05;;;;;;;47.40;21.20;;;2.70;99.90;;;;;;5134522;27;20234;-76
2020/12/07 06:33:39;;;;;;;47.03;19.80;;;2.70;99.90;;;;;;5116326;27;20733;-76
2020/12/07 06:36:05;;;;;;;45.60;20.33;;;2.70;99.90;;;;;;5128808;27;20670;-76
2020/12/07 06:38:42;;;;;;;41.73;19.73;;;2.70;99.90;;;;;;5132681;27;20194;-74
2020/12/07 06:41:08;;;;;;;61.90;19.50;;;2.60;99.90;;;;;;5132889;27;20190;-75
2020/12/07 06:43:34;;;;;;;42.33;19.10;;;2.60;99.90;;;;;;5130926;27;20207;-75
2020/12/07 06:46:01;;;;;;;44.57;19.37;;;2.60;99.90;;;;;;5130282;27;20566;-78
2020/12/07 06:48:27;;;;;;;42.37;18.80;;;2.50;99.90;;;;;;5128253;27;20292;-75
2020/12/07 06:50:57;;;;;;;47.47;19.70;;;2.50;99.90;;;;;;5133026;27;20310;-76
2020/12/07 06:53:39;;;;;;;48.60;19.00;;;2.60;99.90;;;;;;5129364;27;20210;-75
2020/12/07 06:56:05;;;;;;;43.20;18.63;;;2.60;99.90;;;;;;5123966;27;20204;-76
2020/12/07 06:58:36;;;;;;;48.00;20.03;;;2.60;99.90;;;;;;5126713;27;20199;-74
2020/12/07 07:01:12;;;;;;;45.33;20.03;;;2.60;99.90;;;;;;5116410;27;20314;-76
2020/12/07 07:03:49;;;;;;;44.83;19.87;;;2.60;99.90;;;;;;5121143;27;20237;-76
2020/12/07 07:06:20;;;;;;;43.70;19.57;;;2.70;99.90;;;;;;5127104;27;20199;-76
2020/12/07 07:08:47;;;;;;;47.27;20.00;;;2.70;99.90;;;;;;5131289;27;20203;-76
2020/12/07 07:11:13;;;;;;;49.67;20.07;;;2.70;99.90;;;;;;5133180;27;20199;-75
2020/12/07 07:13:40;;;;;;;49.00;20.20;;;2.70;99.90;;;;;;5126683;27;20221;-78
2020/12/07 07:16:06;;;;;;;43.83;19.37;;;2.70;99.90;;;;;;5122568;27;20193;-77
2020/12/07 07:18:33;;;;;;;40.80;18.97;;;2.60;99.90;;;;;;5129593;27;20791;-77
2020/12/07 07:21:02;;;;;;;47.03;19.50;;;2.60;99.90;;;;;;5115917;27;20608;-76
2020/12/07 07:23:30;;;;;;;44.03;19.23;;;2.70;99.90;;;;;;5127923;27;20548;-76
2020/12/07 07:26:13;;;;;;;42.13;19.23;;;2.70;99.90;;;;;;5121056;27;20202;-77
2020/12/07 07:28:39;;;;;;;44.77;19.43;;;2.70;99.90;;;;;;5118320;27;20243;-77
2020/12/07 07:31:05;;;;;;;47.23;19.63;;;2.70;99.90;;;;;;5119375;27;20203;-78
2020/12/07 07:33:32;;;;;;;47.00;19.43;;;2.80;99.90;;;;;;5123302;27;20215;-77
2020/12/07 07:35:58;;;;;;;39.57;17.90;;;2.60;99.90;;;;;;5116328;27;20700;-77
2020/12/07 07:38:28;;;;;;;47.37;19.67;;;2.60;99.90;;;;;;5128971;27;20204;-76
2020/12/07 07:40:55;;;;;;;44.23;18.67;;;2.60;99.90;;;;;;5115374;27;20202;-77
2020/12/07 07:43:24;;;;;;;45.10;18.70;;;2.60;99.90;;;;;;5128383;27;20195;-77
2020/12/07 07:45:56;;;;;;;41.87;17.93;;;2.50;99.90;;;;;;5120374;27;20564;-78
2020/12/07 07:48:26;;;;;;;40.77;18.00;;;2.50;99.90;;;;;;5129123;27;20669;-79
2020/12/07 07:51:28;;;;;;;37.33;17.70;;;2.50;99.90;;;;;;5132370;27;20198;-77
2020/12/07 07:54:28;;;;;;;43.83;18.53;;;2.50;99.90;;;;;;5126434;27;20250;-77
2020/12/07 08:16:27;;;;;;;44.87;17.47;;;2.90;99.90;;;;;;5124792;27;20327;-77
2020/12/07 08:18:56;;;;;;;46.30;19.00;;;2.90;99.90;;;;;;5129261;27;20197;-76
2020/12/07 08:21:27;;;;;;;46.43;19.00;;;2.90;99.90;;;;;;5116454;28;20185;-76
2020/12/07 08:23:55;;;;;;;47.77;19.47;;;2.90;99.90;;;;;;5123830;27;20712;-77
2020/12/07 08:26:23;;;;;;;49.30;19.83;;;2.90;99.90;;;;;;5124142;27;20656;-78
2020/12/07 08:28:53;;;;;;;48.03;20.43;;;3.00;99.90;;;;;;5116239;27;20629;-77
2020/12/07 08:31:20;;;;;;;47.47;19.80;;;3.10;99.90;;;;;;5114259;28;20657;-76
2020/12/07 08:34:01;;;;;;;53.87;19.77;;;3.10;99.90;;;;;;5119592;27;20217;-77
2020/12/07 08:36:28;;;;;;;48.93;20.47;;;3.20;99.90;;;;;;5125423;28;20221;-76
2020/12/07 08:38:55;;;;;;;46.93;19.23;;;3.20;99.90;;;;;;5132054;27;20723;-77
2020/12/07 08:41:22;;;;;;;45.83;19.97;;;3.30;99.90;;;;;;5114661;28;20209;-76
2020/12/07 08:43:51;;;;;;;51.53;20.20;;;3.40;99.90;;;;;;5119700;28;20195;-76
2020/12/07 08:46:19;;;;;;;46.73;20.50;;;3.30;99.90;;;;;;5119937;27;20226;-77
2020/12/07 08:48:46;;;;;;;50.43;19.90;;;3.40;99.90;;;;;;5127549;27;20198;-76
2020/12/07 08:51:13;;;;;;;49.17;20.73;;;3.60;99.90;;;;;;5119407;27;20194;-77
2020/12/07 08:53:40;;;;;;;50.37;20.90;;;3.60;99.90;;;;;;5118052;27;20246;-77
2020/12/07 08:56:08;;;;;;;49.70;21.60;;;3.80;99.90;;;;;;5122229;27;20230;-77
2020/12/07 08:58:34;;;;;;;49.13;21.27;;;3.80;99.90;;;;;;5125290;27;20248;-78
2020/12/07 09:01:03;;;;;;;53.67;21.93;;;3.80;99.90;;;;;;5130965;27;20195;-76
2020/12/07 09:03:30;;;;;;;52.23;21.40;;;3.70;99.90;;;;;;5116525;27;20199;-77
2020/12/07 09:05:56;;;;;;;54.97;21.23;;;3.60;99.90;;;;;;5122882;27;20610;-77
2020/12/07 09:08:22;;;;;;;51.93;21.57;;;3.60;99.90;;;;;;5123884;28;20205;-77
2020/12/07 09:10:49;;;;;;;54.37;21.13;;;3.60;99.90;;;;;;5116021;27;20199;-77
2020/12/07 09:13:15;;;;;;;48.93;21.30;;;3.70;99.90;;;;;;5128620;28;20233;-77
2020/12/07 09:15:42;;;;;;;53.37;20.77;;;3.70;99.90;;;;;;5118266;28;20204;-76
2020/12/07 09:18:09;;;;;;;47.03;20.43;;;3.80;99.90;;;;;;5128629;27;20657;-75
2020/12/07 09:20:36;;;;;;;49.37;21.10;;;3.70;99.90;;;;;;5117410;27;20646;-78
2020/12/07 09:23:02;;;;;;;49.30;20.90;;;3.80;99.90;;;;;;5128474;28;20211;-77
2020/12/07 09:25:28;;;;;;;51.70;20.30;;;3.80;99.90;;;;;;5123349;28;20285;-76
2020/12/07 09:27:55;;;;;;;42.00;19.53;;;3.70;99.90;;;;;;5123946;27;20190;-77
2020/12/07 09:30:21;;;;;;;47.73;20.67;;;3.70;99.90;;;;;;5127859;27;20194;-77
2020/12/07 09:32:48;;;;;;;49.03;21.43;;;3.80;99.90;;;;;;5119527;27;20212;-77
2020/12/07 09:35:15;;;;;;;44.77;20.33;;;3.80;99.90;;;;;;5131958;27;20206;-77
2020/12/07 09:37:41;;;;;;;47.47;21.30;;;4.00;99.90;;;;;;5121502;27;20278;-75
2020/12/07 09:40:10;;;;;;;48.50;21.20;;;4.00;99.90;;;;;;5124378;27;20196;-76
2020/12/07 09:42:37;;;;;;;47.37;19.77;;;4.00;99.90;;;;;;5129457;27;20190;-77
2020/12/07 09:45:04;;;;;;;47.93;20.63;;;4.00;99.90;;;;;;5129285;27;20195;-77
2020/12/07 09:47:30;;;;;;;45.00;20.90;;;4.00;99.90;;;;;;5123884;27;20659;-77
2020/12/07 09:49:58;;;;;;;49.20;21.67;;;4.10;99.90;;;;;;5123320;27;20200;-77
2020/12/07 09:52:25;;;;;;;46.17;21.60;;;4.10;99.90;;;;;;5134281;27;20199;-76
2020/12/07 09:54:51;;;;;;;51.87;21.63;;;4.00;99.90;;;;;;5134990;27;20275;-76
2020/12/07 09:57:18;;;;;;;49.40;21.97;;;3.80;99.90;;;;;;5118025;27;20202;-77
2020/12/07 09:59:47;;;;;;;46.03;21.37;;;3.70;99.90;;;;;;5127687;27;20288;-77
2020/12/07 10:02:13;;;;;;;50.50;21.73;;;3.80;99.90;;;;;;5119653;27;20291;-78
2020/12/07 10:04:40;;;;;;;49.07;21.40;;;3.70;99.90;;;;;;5129709;27;20207;-77
2020/12/07 10:07:06;;;;;;;52.40;23.53;;;4.00;99.90;;;;;;5118052;27;20214;-76
2020/12/07 10:09:34;;;;;;;49.77;22.70;;;4.10;99.90;;;;;;5129437;27;20200;-76
2020/12/07 10:12:00;;;;;;;53.67;24.00;;;4.10;99.90;;;;;;5123662;27;20246;-77
2020/12/07 10:14:26;;;;;;;52.90;23.97;;;4.10;99.90;;;;;;5121724;27;20220;-76
2020/12/07 10:16:53;;;;;;;51.13;23.47;;;4.10;99.90;;;;;;5127949;27;20196;-77
2020/12/07 10:19:19;;;;;;;54.20;24.73;;;4.10;99.90;;;;;;5117870;27;20199;-76
2020/12/07 10:21:45;;;;;;;51.20;22.53;;;4.10;99.90;;;;;;5119978;27;20202;-76
2020/12/07 10:24:12;;;;;;;50.67;24.00;;;4.20;99.90;;;;;;5125400;27;20204;-76
2020/12/07 10:26:39;;;;;;;54.23;24.03;;;4.20;99.90;;;;;;5134776;27;20206;-77
2020/12/07 10:29:05;;;;;;;51.03;23.63;;;4.20;99.90;;;;;;5125188;27;20282;-76
2020/12/07 10:31:32;;;;;;;57.53;25.33;;;4.40;99.90;;;;;;5118677;27;20203;-76
2020/12/07 10:33:58;;;;;;;53.60;24.17;;;4.50;99.90;;;;;;5124458;27;20314;-78
2020/12/07 10:36:24;;;;;;;62.57;25.40;;;4.50;99.90;;;;;;5126601;27;20195;-76
2020/12/07 10:38:51;;;;;;;55.83;25.63;;;4.70;99.90;;;;;;5128033;27;20672;-76
2020/12/07 10:41:18;;;;;;;55.93;25.87;;;4.60;99.90;;;;;;5117508;27;20281;-78
2020/12/07 10:43:45;;;;;;;55.20;26.83;;;4.60;99.90;;;;;;5121702;27;20284;-77
2020/12/07 10:46:13;;;;;;;58.50;26.27;;;4.70;99.90;;;;;;5123384;27;20196;-78
2020/12/07 10:48:39;;;;;;;57.03;25.83;;;4.80;99.90;;;;;;5128737;27;20715;-78
2020/12/07 10:51:05;;;;;;;54.77;26.47;;;4.60;99.90;;;;;;5132533;27;20214;-76
2020/12/07 10:53:32;;;;;;;57.40;26.03;;;4.60;99.90;;;;;;5120589;27;20225;-78
2020/12/07 10:55:58;;;;;;;56.73;26.13;;;4.70;99.90;;;;;;5122572;27;20206;-78
2020/12/07 10:58:24;;;;;;;60.00;26.67;;;4.80;99.90;;;;;;5121056;27;20192;-78
2020/12/07 11:00:52;;;;;;;57.50;25.90;;;4.80;99.90;;;;;;5129729;27;20203;-76
2020/12/07 11:03:18;;;;;;;53.20;25.87;;;5.00;99.90;;;;;;5116727;27;20203;-78
2020/12/07 11:05:45;;;;;;;57.70;25.00;;;5.10;99.90;;;;;;5127461;27;20218;-76
2020/12/07 11:08:18;;;;;;;55.87;26.00;;;5.10;99.90;;;;;;5122487;27;20253;-76
2020/12/07 11:10:44;;;;;;;56.23;26.20;;;5.10;99.90;;;;;;5129355;27;20182;-77
2020/12/07 11:13:25;;;;;;;54.50;25.43;;;5.20;99.90;;;;;;5116391;27;20293;-76
2020/12/07 11:15:52;;;;;;;52.57;25.37;;;5.40;99.90;;;;;;5126803;27;20191;-76
2020/12/07 11:18:19;;;;;;;56.13;25.70;;;5.40;99.90;;;;;;5130328;27;20233;-76
2020/12/07 11:20:45;;;;;;;56.40;26.07;;;5.50;99.90;;;;;;5117753;27;20197;-76
2020/12/07 11:23:11;;;;;;;56.70;26.37;;;5.50;99.90;;;;;;5130041;27;20286;-76
2020/12/07 11:25:38;;;;;;;56.23;25.13;;;5.70;99.90;;;;;;5119201;27;20191;-74
2020/12/07 11:28:04;;;;;;;54.63;24.73;;;5.50;99.90;;;;;;5123308;27;20211;-76
2020/12/07 11:30:30;;;;;;;54.23;25.00;;;5.50;99.90;;;;;;5112773;28;20290;-78
2020/12/07 11:32:58;;;;;;;54.87;25.27;;;5.40;99.90;;;;;;5120582;27;20295;-78
2020/12/07 11:35:24;;;;;;;49.80;24.33;;;5.50;99.90;;;;;;5128635;27;20290;-77
2020/12/07 11:37:55;;;;;;;51.70;25.50;;;5.50;99.90;;;;;;5122901;27;20834;-79
2020/12/07 11:40:32;;;;;;;57.43;26.43;;;5.30;99.90;;;;;;5129223;27;20188;-79
2020/12/07 11:43:06;;;;;;;58.27;27.03;;;5.40;99.90;;;;;;5123227;27;20205;-79
2020/12/07 11:45:32;;;;;;;57.67;26.43;;;5.50;99.90;;;;;;5128309;27;20520;-79
2020/12/07 11:47:59;;;;;;;57.97;27.43;;;5.50;99.90;;;;;;5130295;27;20278;-79
2020/12/07 11:50:26;;;;;;;58.10;27.20;;;5.60;99.90;;;;;;5127967;27;20195;-80
2020/12/07 11:52:52;;;;;;;58.50;26.67;;;5.60;99.90;;;;;;5128098;27;20192;-79
2020/12/07 11:55:18;;;;;;;55.53;26.70;;;5.70;99.90;;;;;;5126263;27;20303;-80
2020/12/07 11:57:45;;;;;;;49.27;25.20;;;5.80;99.90;;;;;;5130593;27;20191;-81
2020/12/07 12:00:12;;;;;;;51.20;24.90;;;5.90;99.90;;;;;;5124086;27;20196;-79
2020/12/07 12:02:39;;;;;;;53.83;25.30;;;5.90;99.90;;;;;;5125927;27;20338;-78
2020/12/07 12:05:06;;;;;;;51.73;25.80;;;5.80;99.90;;;;;;5126546;27;20289;-81
2020/12/07 12:07:33;;;;;;;53.90;26.20;;;5.80;99.90;;;;;;5129809;27;20207;-78
2020/12/07 12:09:59;;;;;;;51.63;25.87;;;5.90;99.90;;;;;;5129477;27;20321;-78
2020/12/07 12:12:26;;;;;;;52.83;25.63;;;5.80;99.90;;;;;;5126798;27;20197;-77
2020/12/07 12:14:53;;;;;;;52.27;25.60;;;5.70;99.90;;;;;;5125109;27;20214;-79
2020/12/07 12:17:20;;;;;;;49.10;24.97;;;5.90;99.90;;;;;;5128937;27;20702;-78
2020/12/07 12:19:46;;;;;;;50.57;24.17;;;5.90;99.90;;;;;;5130032;27;20245;-80
2020/12/07 12:22:13;;;;;;;50.03;24.43;;;6.10;99.90;;;;;;5130064;27;20234;-80
2020/12/07 12:24:40;;;;;;;49.30;25.83;;;6.40;99.90;;;;;;5129736;27;20201;-78
2020/12/07 12:27:07;;;;;;;51.63;26.53;;;6.60;99.90;;;;;;5124255;27;20200;-77
2020/12/07 12:29:33;;;;;;;47.40;24.33;;;6.60;99.90;;;;;;5120146;27;20191;-77
2020/12/07 12:32:00;;;;;;;49.40;24.73;;;6.60;99.90;;;;;;5124195;27;20735;-80
2020/12/07 12:34:26;;;;;;;47.63;24.30;;;6.70;99.90;;;;;;5126249;27;20604;-76
2020/12/07 12:36:53;;;;;;;45.10;24.53;;;6.70;99.90;;;;;;5129240;27;20205;-78
2020/12/07 12:39:21;;;;;;;51.43;24.87;;;6.50;99.90;;;;;;5128330;28;20198;-78
2020/12/07 12:41:48;;;;;;;47.00;24.33;;;6.30;99.90;;;;;;5124174;28;20667;-76
2020/12/07 12:44:14;;;;;;;51.47;24.33;;;6.20;99.90;;;;;;5126911;27;20203;-79
2020/12/07 12:46:41;;;;;;;50.47;24.50;;;6.40;99.90;;;;;;5125364;27;20287;-79
2020/12/07 12:49:07;;;;;;;48.23;24.03;;;6.50;99.90;;;;;;5128620;27;20230;-78
2020/12/07 12:51:34;;;;;;;51.13;23.37;;;6.60;99.90;;;;;;5124744;27;20274;-77
2020/12/07 12:54:00;;;;;;;48.63;23.37;;;6.50;99.90;;;;;;5127731;27;20303;-78
2020/12/07 12:56:28;;;;;;;47.70;22.10;;;6.30;99.90;;;;;;5121776;27;20220;-78